createdAt,value
2023-05-12T00:00:39.137Z,78.11
2023-05-12T00:01:39.399Z,78.21
2023-05-12T00:02:39.215Z,78.21
2023-05-12T00:03:39.506Z,78.11
2023-05-12T00:04:38.442Z,77.91
2023-05-12T00:05:39.266Z,77.91
2023-05-12T00:06:39.317Z,77.91
2023-05-12T00:07:39.182Z,77.91
2023-05-12T00:08:39.173Z,77.81
2023-05-12T00:09:39.164Z,77.70
2023-05-12T00:10:39.099Z,77.60
2023-05-12T00:11:39.058Z,77.50
2023-05-12T00:12:39.156Z,77.29
2023-05-12T00:13:39.035Z,77.16
2023-05-12T00:14:39.317Z,76.95
2023-05-12T00:15:38.970Z,77.06
2023-05-12T00:16:39.140Z,76.86
2023-05-12T00:17:39.001Z,76.75
2023-05-12T00:18:39.094Z,76.45
2023-05-12T00:19:38.952Z,76.65
2023-05-12T00:20:39.234Z,76.75
2023-05-12T00:21:38.905Z,77.26
2023-05-12T00:22:39.016Z,77.40
2023-05-12T00:23:38.996Z,77.50
2023-05-12T00:24:39.064Z,77.67
2023-05-12T00:25:38.914Z,77.67
2023-05-12T00:26:38.849Z,77.67
2023-05-12T00:27:38.890Z,77.70
2023-05-12T00:28:38.770Z,78.11
2023-05-12T00:29:38.957Z,78.41
2023-05-12T00:30:38.827Z,78.41
2023-05-12T00:31:39.150Z,78.92
2023-05-12T00:32:38.884Z,79.02
2023-05-12T00:33:38.933Z,79.02
2023-05-12T00:34:38.834Z,79.23
2023-05-12T00:35:38.876Z,79.33
2023-05-12T00:36:38.989Z,79.33
2023-05-12T00:37:38.973Z,79.23
2023-05-12T00:38:38.838Z,79.23
2023-05-12T00:39:39.057Z,79.57
2023-05-12T00:40:38.811Z,79.68
2023-05-12T00:41:38.866Z,79.57
2023-05-12T00:42:38.779Z,79.43
2023-05-12T00:43:38.690Z,79.57
2023-05-12T00:44:38.821Z,79.57
2023-05-12T00:45:38.687Z,79.68
2023-05-12T00:46:38.915Z,79.57
2023-05-12T00:47:38.738Z,79.68
2023-05-12T00:48:38.805Z,79.88
2023-05-12T00:49:38.767Z,79.57
2023-05-12T00:50:38.727Z,79.68
2023-05-12T00:51:38.835Z,79.68
2023-05-12T00:52:38.713Z,79.57
2023-05-12T00:53:48.380Z,79.37
2023-05-12T00:54:38.768Z,79.37
2023-05-12T00:55:38.608Z,79.27
2023-05-12T00:56:38.660Z,79.27
2023-05-12T00:57:38.649Z,79.27
2023-05-12T00:58:38.518Z,79.27
2023-05-12T00:59:38.679Z,79.27
2023-05-12T01:00:38.442Z,79.37
2023-05-12T01:01:38.665Z,79.57
2023-05-12T01:02:38.554Z,79.57
2023-05-12T01:03:38.689Z,79.68
2023-05-12T01:04:38.453Z,79.77
2023-05-12T01:05:38.649Z,79.68
2023-05-12T01:06:38.688Z,79.68
2023-05-12T01:07:38.617Z,79.68
2023-05-12T01:08:38.467Z,79.88
2023-05-12T01:09:38.650Z,79.77
2023-05-12T01:10:38.500Z,79.98
2023-05-12T01:11:38.579Z,79.98
2023-05-12T01:12:38.487Z,79.88
2023-05-12T01:13:38.291Z,79.98
2023-05-12T01:14:38.438Z,80.18
2023-05-12T01:15:38.395Z,79.77
2023-05-12T01:16:38.509Z,79.68
2023-05-12T01:17:38.520Z,79.47
2023-05-12T01:18:38.547Z,79.57
2023-05-12T01:19:38.356Z,79.57
2023-05-12T01:20:38.448Z,79.57
2023-05-12T01:21:38.619Z,79.77
2023-05-12T01:22:38.479Z,79.57
2023-05-12T01:23:38.278Z,79.68
2023-05-12T01:24:38.382Z,79.68
2023-05-12T01:25:38.321Z,79.77
2023-05-12T01:26:38.448Z,80.08
2023-05-12T01:27:38.358Z,80.18
2023-05-12T01:28:38.136Z,80.29
2023-05-12T01:29:38.298Z,80.29
2023-05-12T01:30:38.199Z,80.08
2023-05-12T01:31:38.310Z,80.08
2023-05-12T01:32:38.150Z,80.29
2023-05-12T01:33:38.378Z,80.18
2023-05-12T01:34:38.124Z,80.29
2023-05-12T01:35:38.250Z,80.29
2023-05-12T01:36:38.169Z,80.49
2023-05-12T01:37:38.258Z,80.38
2023-05-12T01:38:38.243Z,80.18
2023-05-12T01:39:38.318Z,80.29
2023-05-12T01:40:38.214Z,80.38
2023-05-12T01:41:38.204Z,80.59
2023-05-12T01:42:38.170Z,80.79
2023-05-12T01:43:38.195Z,80.90
2023-05-12T01:44:38.153Z,81.13
2023-05-12T01:45:38.022Z,81.10
2023-05-12T01:46:38.169Z,80.90
2023-05-12T01:47:38.031Z,81.13
2023-05-12T01:48:38.173Z,81.10
2023-05-12T01:49:37.952Z,81.44
2023-05-12T01:50:38.095Z,81.54
2023-05-12T01:51:38.182Z,81.85
2023-05-12T01:52:38.115Z,81.85
2023-05-12T01:53:38.025Z,81.95
2023-05-12T01:54:38.124Z,81.74
2023-05-12T01:55:37.983Z,81.65
2023-05-12T01:56:38.133Z,81.74
2023-05-12T01:57:38.054Z,81.65
2023-05-12T01:58:38.075Z,81.74
2023-05-12T01:59:38.015Z,81.95
2023-05-12T02:00:37.870Z,82.26
2023-05-12T02:01:38.116Z,82.80
2023-05-12T02:02:38.588Z,82.76
2023-05-12T02:03:38.201Z,82.76
2023-05-12T02:04:37.847Z,82.76
2023-05-12T02:05:38.033Z,82.97
2023-05-12T02:06:37.877Z,83.42
2023-05-12T02:07:37.934Z,83.42
2023-05-12T02:08:37.928Z,83.62
2023-05-12T02:09:37.970Z,83.82
2023-05-12T02:10:37.910Z,83.82
2023-05-12T02:11:37.981Z,83.72
2023-05-12T02:12:37.933Z,83.78
2023-05-12T02:13:37.972Z,83.62
2023-05-12T02:14:37.802Z,83.92
2023-05-12T02:15:37.940Z,84.12
2023-05-12T02:16:38.004Z,84.33
2023-05-12T02:17:37.744Z,84.43
2023-05-12T02:18:37.868Z,84.53
2023-05-12T02:19:37.695Z,85.05
2023-05-12T02:20:37.802Z,85.14
2023-05-12T02:21:37.722Z,85.25
2023-05-12T02:22:37.771Z,85.14
2023-05-12T02:23:37.683Z,85.45
2023-05-12T02:24:37.842Z,85.66
2023-05-12T02:25:37.774Z,85.75
2023-05-12T02:26:37.764Z,85.45
2023-05-12T02:27:37.708Z,85.96
2023-05-12T02:28:37.761Z,85.82
2023-05-12T02:29:37.686Z,85.31
2023-05-12T02:30:37.554Z,85.86
2023-05-12T02:31:37.743Z,86.16
2023-05-12T02:32:37.622Z,86.37
2023-05-12T02:33:37.684Z,86.77
2023-05-12T02:34:37.553Z,87.18
2023-05-12T02:35:37.710Z,87.53
2023-05-12T02:36:37.584Z,88.45
2023-05-12T02:37:37.724Z,88.34
2023-05-12T02:38:37.513Z,88.14
2023-05-12T02:39:37.632Z,88.75
2023-05-12T02:40:37.509Z,88.85
2023-05-12T02:41:37.654Z,89.47
2023-05-12T02:42:37.510Z,89.47
2023-05-12T02:43:37.611Z,89.61
2023-05-12T02:44:37.609Z,90.01
2023-05-12T02:45:37.568Z,90.83
2023-05-12T02:46:37.535Z,91.35
2023-05-12T02:47:37.478Z,91.85
2023-05-12T02:48:37.497Z,91.75
2023-05-12T02:49:37.316Z,92.77
2023-05-12T02:50:37.516Z,93.18
2023-05-12T02:51:37.339Z,92.97
2023-05-12T02:52:37.514Z,93.12
2023-05-12T02:53:37.468Z,93.43
2023-05-12T02:54:37.537Z,94.14
2023-05-12T02:55:37.346Z,94.34
2023-05-12T02:56:37.449Z,94.24
2023-05-12T02:57:37.319Z,94.34
2023-05-12T02:58:37.489Z,94.75
2023-05-12T02:59:37.338Z,94.85
2023-05-12T03:00:37.373Z,94.65
2023-05-12T03:01:37.399Z,94.85
2023-05-12T03:02:37.207Z,94.65
2023-05-12T03:03:37.542Z,94.85
2023-05-12T03:04:37.268Z,94.55
2023-05-12T03:05:37.460Z,95.06
2023-05-12T03:06:37.208Z,94.55
2023-05-12T03:07:37.361Z,94.45
2023-05-12T03:08:37.176Z,94.24
2023-05-12T03:09:37.483Z,94.14
2023-05-12T03:10:36.514Z,94.20
2023-05-12T03:11:37.291Z,93.89
2023-05-12T03:12:37.163Z,93.89
2023-05-12T03:13:37.282Z,93.69
2023-05-12T03:14:37.268Z,94.20
2023-05-12T03:15:37.331Z,94.24
2023-05-12T03:16:37.221Z,94.85
2023-05-12T03:17:37.079Z,95.47
2023-05-12T03:18:37.229Z,95.16
2023-05-12T03:19:37.176Z,95.87
2023-05-12T03:20:37.159Z,96.28
2023-05-12T03:21:37.026Z,96.69
2023-05-12T03:22:37.405Z,96.69
2023-05-12T03:23:37.015Z,96.53
2023-05-12T03:24:37.386Z,97.14
2023-05-12T03:25:37.055Z,97.34
2023-05-12T03:26:37.125Z,96.84
2023-05-12T03:27:37.060Z,96.88
2023-05-12T03:28:37.088Z,98.88
2023-05-12T03:29:37.115Z,98.47
2023-05-12T03:30:36.297Z,98.57
2023-05-12T03:31:37.077Z,98.06
2023-05-12T03:32:36.858Z,98.16
2023-05-12T03:33:36.996Z,98.41
2023-05-12T03:34:36.826Z,98.57
2023-05-12T03:35:37.168Z,98.52
2023-05-12T03:36:36.863Z,98.98
2023-05-12T03:37:37.027Z,98.88
2023-05-12T03:38:36.895Z,99.18
2023-05-12T03:39:37.174Z,98.98
2023-05-12T03:40:36.244Z,98.98
2023-05-12T03:41:36.994Z,98.77
2023-05-12T03:42:36.924Z,98.68
2023-05-12T03:43:37.127Z,98.77
2023-05-12T03:44:36.844Z,98.77
2023-05-12T03:45:36.124Z,98.77
2023-05-12T03:46:37.037Z,98.88
2023-05-12T03:47:37.050Z,99.13
2023-05-12T03:48:36.116Z,99.95
2023-05-12T03:49:36.712Z,99.99
2023-05-12T03:50:36.867Z,99.99
2023-05-12T03:51:36.908Z,99.49
2023-05-12T03:52:36.895Z,99.33
2023-05-12T03:53:36.782Z,99.54
2023-05-12T03:54:38.042Z,99.64
2023-05-12T03:55:36.704Z,99.79
2023-05-12T03:56:37.029Z,99.79
2023-05-12T03:57:36.798Z,99.23
2023-05-12T03:58:36.829Z,99.54
2023-05-12T03:59:36.007Z,99.43
2023-05-12T04:00:36.870Z,99.84
2023-05-12T04:01:36.869Z,99.99
2023-05-12T04:02:36.890Z,99.95
2023-05-12T04:03:36.822Z,99.99
2023-05-12T04:04:36.516Z,99.99
2023-05-12T04:05:36.688Z,99.99
2023-05-12T04:06:35.925Z,99.99
2023-05-12T04:07:36.781Z,99.99
2023-05-12T04:08:36.559Z,99.99
2023-05-12T04:09:36.784Z,99.99
2023-05-12T04:10:36.585Z,99.99
2023-05-12T04:11:36.705Z,99.99
2023-05-12T04:12:36.608Z,99.99
2023-05-12T04:13:36.748Z,99.99
2023-05-12T04:14:42.770Z,99.99
2023-05-12T04:15:36.654Z,99.99
2023-05-12T04:16:36.540Z,99.99
2023-05-12T04:17:36.618Z,99.99
2023-05-12T04:18:36.673Z,99.99
2023-05-12T04:19:36.471Z,99.99
2023-05-12T04:20:36.516Z,99.99
2023-05-12T04:21:36.338Z,99.99
2023-05-12T04:22:36.509Z,99.99
2023-05-12T04:23:36.360Z,99.99
2023-05-12T04:24:36.566Z,99.99
2023-05-12T04:25:36.456Z,99.99
2023-05-12T04:26:36.496Z,99.99
2023-05-12T04:27:36.383Z,99.99
2023-05-12T04:28:36.515Z,99.99
2023-05-12T04:29:36.384Z,99.99
2023-05-12T04:30:36.517Z,99.99
2023-05-12T04:31:36.469Z,99.99
2023-05-12T04:32:36.663Z,99.99
2023-05-12T04:33:36.367Z,99.99
2023-05-12T04:34:37.307Z,99.99
2023-05-12T04:35:36.347Z,99.99
2023-05-12T04:36:37.371Z,99.99
2023-05-12T04:37:36.462Z,99.99
2023-05-12T04:38:36.848Z,99.99
2023-05-12T04:39:36.387Z,99.99
2023-05-12T04:40:36.988Z,99.99
2023-05-12T04:41:36.406Z,99.99
2023-05-12T04:42:35.562Z,99.99
2023-05-12T04:44:35.540Z,99.99
2023-05-12T04:45:35.570Z,99.99
2023-05-12T04:46:35.633Z,99.99
2023-05-12T04:47:37.324Z,99.99
2023-05-12T04:48:36.529Z,99.99
2023-05-12T04:49:35.476Z,99.99
2023-05-12T04:50:37.014Z,99.99
2023-05-12T04:51:36.037Z,99.99
2023-05-12T04:52:36.325Z,99.99
2023-05-12T04:53:35.437Z,99.99
2023-05-12T04:54:36.248Z,99.99
2023-05-12T04:55:35.428Z,99.99
2023-05-12T04:56:35.454Z,99.99
2023-05-12T04:57:36.344Z,99.99
2023-05-12T04:58:36.256Z,99.99
2023-05-12T04:59:37.877Z,99.99
2023-05-12T05:00:36.387Z,99.99
2023-05-12T05:01:35.404Z,99.99
2023-05-12T05:02:37.207Z,99.99
2023-05-12T05:03:36.851Z,99.99
2023-05-12T05:04:36.126Z,99.99
2023-05-12T05:05:35.317Z,99.99
2023-05-12T05:06:35.318Z,99.99
2023-05-12T05:07:36.404Z,99.99
2023-05-12T05:08:36.056Z,99.99
2023-05-12T05:09:36.416Z,99.99
2023-05-12T05:10:36.847Z,99.99
2023-05-12T05:11:36.209Z,99.99
2023-05-12T05:12:36.020Z,99.99
2023-05-12T05:13:37.255Z,99.99
2023-05-12T05:14:35.270Z,99.99
2023-05-12T05:15:36.236Z,99.99
2023-05-12T05:16:35.894Z,99.99
2023-05-12T05:17:36.117Z,99.99
2023-05-12T05:18:35.958Z,99.99
2023-05-12T05:19:50.945Z,99.99
2023-05-12T05:20:40.684Z,99.99
2023-05-12T05:21:35.812Z,99.99
2023-05-12T05:22:36.060Z,99.49
2023-05-12T05:23:36.451Z,98.98
2023-05-12T05:24:35.937Z,99.39
2023-05-12T05:25:36.119Z,99.99
2023-05-12T05:26:36.121Z,99.99
2023-05-12T05:27:35.972Z,99.99
2023-05-12T05:28:35.188Z,99.99
2023-05-12T05:29:36.409Z,99.14
2023-05-12T05:30:36.629Z,99.75
2023-05-12T05:31:36.062Z,99.14
2023-05-12T05:32:36.939Z,99.75
2023-05-12T05:33:35.727Z,99.54
2023-05-12T05:34:35.148Z,99.14
2023-05-12T05:35:35.028Z,99.24
2023-05-12T05:36:35.706Z,98.83
2023-05-12T05:37:35.107Z,98.73
2023-05-12T05:38:35.663Z,99.14
2023-05-12T05:39:35.766Z,99.99
2023-05-12T05:40:45.445Z,98.68
2023-05-12T05:41:36.602Z,98.58
2023-05-12T05:42:36.350Z,97.87
2023-05-12T05:43:35.953Z,98.48
2023-05-12T05:44:35.566Z,97.56
2023-05-12T05:45:34.897Z,98.11
2023-05-12T05:46:37.085Z,98.48
2023-05-12T05:47:35.844Z,98.58
2023-05-12T05:48:35.568Z,98.89
2023-05-12T05:49:34.904Z,98.07
2023-05-12T05:50:36.848Z,96.75
2023-05-12T05:51:36.357Z,97.66
2023-05-12T05:52:34.842Z,97.05
2023-05-12T05:53:34.829Z,97.16
2023-05-12T05:54:34.800Z,97.77
2023-05-12T05:55:35.841Z,97.97
2023-05-12T05:56:35.649Z,97.16
2023-05-12T05:57:35.298Z,97.87
2023-05-12T05:58:35.587Z,96.75
2023-05-12T05:59:35.464Z,97.00
2023-05-12T06:00:34.732Z,98.38
2023-05-12T06:01:36.620Z,97.97
2023-05-12T06:02:36.334Z,97.16
2023-05-12T06:03:35.872Z,96.84
2023-05-12T06:04:34.698Z,96.64
2023-05-12T06:05:36.075Z,97.16
2023-05-12T06:06:35.644Z,97.41
2023-05-12T06:07:34.722Z,98.02
2023-05-12T06:08:35.903Z,97.00
2023-05-12T06:09:35.584Z,97.00
2023-05-12T06:10:35.393Z,96.35
2023-05-12T06:11:34.622Z,96.25
2023-05-12T06:12:35.301Z,95.48
2023-05-12T06:13:35.715Z,95.58
2023-05-12T06:14:34.673Z,96.50
2023-05-12T06:15:36.231Z,97.00
2023-05-12T06:16:36.010Z,96.50
2023-05-12T06:17:34.606Z,96.96
2023-05-12T06:18:36.504Z,96.35
2023-05-12T06:19:35.533Z,96.76
2023-05-12T06:20:34.648Z,95.33
2023-05-12T06:21:36.523Z,95.43
2023-05-12T06:22:36.009Z,96.04
2023-05-12T06:23:34.514Z,95.43
2023-05-12T06:24:36.056Z,96.04
2023-05-12T06:25:35.755Z,95.90
2023-05-12T06:26:35.422Z,95.59
2023-05-12T06:27:34.514Z,95.49
2023-05-12T06:28:35.384Z,94.68
2023-05-12T06:29:34.434Z,94.98
2023-05-12T06:30:36.292Z,94.27
2023-05-12T06:31:36.068Z,94.78
2023-05-12T06:32:35.271Z,94.27
2023-05-12T06:33:35.176Z,94.43
2023-05-12T06:34:34.447Z,94.02
2023-05-12T06:35:35.126Z,93.71
2023-05-12T06:36:34.395Z,93.41
2023-05-12T06:37:36.106Z,93.62
2023-05-12T06:38:35.916Z,93.92
2023-05-12T06:39:34.334Z,93.55
2023-05-12T06:40:36.397Z,92.64
2023-05-12T06:41:36.098Z,94.78
2023-05-12T06:42:34.328Z,93.60
2023-05-12T06:43:35.886Z,94.31
2023-05-12T06:44:35.608Z,94.11
2023-05-12T06:45:34.268Z,93.50
2023-05-12T06:46:36.395Z,93.50
2023-05-12T06:47:36.145Z,94.01
2023-05-12T06:48:34.253Z,94.21
2023-05-12T06:49:35.969Z,94.82
2023-05-12T06:50:35.321Z,94.72
2023-05-12T06:51:34.214Z,94.17
2023-05-12T06:52:36.216Z,93.60
2023-05-12T06:53:35.168Z,92.38
2023-05-12T06:54:35.081Z,92.79
2023-05-12T06:55:34.179Z,92.99
2023-05-12T06:56:35.430Z,92.79
2023-05-12T06:57:35.321Z,91.87
2023-05-12T06:58:35.594Z,92.38
2023-05-12T06:59:34.878Z,93.45
2023-05-12T07:00:34.130Z,92.33
2023-05-12T07:01:35.539Z,93.41
2023-05-12T07:02:35.089Z,92.03
2023-05-12T07:03:34.932Z,93.31
2023-05-12T07:04:34.911Z,93.10
2023-05-12T07:05:34.178Z,91.88
2023-05-12T07:06:34.942Z,91.48
2023-05-12T07:07:34.056Z,91.53
2023-05-12T07:08:34.886Z,91.80
2023-05-12T07:09:34.022Z,90.22
2023-05-12T07:10:35.914Z,90.62
2023-05-12T07:11:35.315Z,90.27
2023-05-12T07:12:34.622Z,90.31
2023-05-12T07:13:33.980Z,92.21
2023-05-12T07:14:35.925Z,90.99
2023-05-12T07:15:35.079Z,89.46
2023-05-12T07:16:34.078Z,90.37
2023-05-12T07:17:34.780Z,90.03
2023-05-12T07:18:33.954Z,90.44
2023-05-12T07:19:34.705Z,90.64
2023-05-12T07:20:34.613Z,89.22
2023-05-12T07:21:34.776Z,89.52
2023-05-12T07:22:36.026Z,89.36
2023-05-12T07:23:34.675Z,88.85
2023-05-12T07:24:33.878Z,88.54
2023-05-12T07:25:35.833Z,89.15
2023-05-12T07:26:35.256Z,90.37
2023-05-12T07:27:34.045Z,90.17
2023-05-12T07:28:35.507Z,90.78
2023-05-12T07:29:34.997Z,89.87
2023-05-12T07:30:35.334Z,91.45
2023-05-12T07:31:33.910Z,89.31
2023-05-12T07:32:35.544Z,89.22
2023-05-12T07:33:34.757Z,89.98
2023-05-12T07:34:33.771Z,89.22
2023-05-12T07:35:34.567Z,88.50
2023-05-12T07:36:33.800Z,88.46
2023-05-12T07:37:35.204Z,87.99
2023-05-12T07:38:34.649Z,87.75
2023-05-12T07:39:33.777Z,87.14
2023-05-12T07:40:35.008Z,87.71
2023-05-12T07:41:34.737Z,86.33
2023-05-12T07:42:34.346Z,87.75
2023-05-12T07:43:34.486Z,86.69
2023-05-12T07:44:33.687Z,84.87
2023-05-12T07:45:34.467Z,85.88
2023-05-12T07:46:33.715Z,85.64
2023-05-12T07:47:34.462Z,84.16
2023-05-12T07:48:34.426Z,84.46
2023-05-12T07:49:34.587Z,83.85
2023-05-12T07:50:33.607Z,84.26
2023-05-12T07:51:35.222Z,84.56
2023-05-12T07:52:34.307Z,83.85
2023-05-12T07:53:33.567Z,83.00
2023-05-12T07:54:35.321Z,84.01
2023-05-12T07:55:34.328Z,83.45
2023-05-12T07:56:34.356Z,83.34
2023-05-12T07:57:33.536Z,82.80
2023-05-12T07:58:35.408Z,81.88
2023-05-12T07:59:34.812Z,83.61
2023-05-12T08:00:33.513Z,83.31
2023-05-12T08:01:35.427Z,83.71
2023-05-12T08:02:34.686Z,81.78
2023-05-12T08:03:34.241Z,82.39
2023-05-12T08:04:34.428Z,83.20
2023-05-12T08:05:34.148Z,83.06
2023-05-12T08:06:33.519Z,83.67
2023-05-12T08:07:35.011Z,82.86
2023-05-12T08:08:34.281Z,81.88
2023-05-12T08:09:33.408Z,83.61
2023-05-12T08:10:35.510Z,84.87
2023-05-12T08:11:34.916Z,83.65
2023-05-12T08:12:33.426Z,83.65
2023-05-12T08:13:34.117Z,84.77
2023-05-12T08:14:33.358Z,83.28
2023-05-12T08:15:34.938Z,83.99
2023-05-12T08:16:34.488Z,84.30
2023-05-12T08:17:34.249Z,84.60
2023-05-12T08:18:33.402Z,84.34
2023-05-12T08:19:35.340Z,84.50
2023-05-12T08:20:34.878Z,85.62
2023-05-12T08:21:33.288Z,85.68
2023-05-12T08:22:34.809Z,83.83
2023-05-12T08:23:34.259Z,84.74
2023-05-12T08:24:33.296Z,85.11
2023-05-12T08:25:34.425Z,83.62
2023-05-12T08:26:35.294Z,83.22
2023-05-12T08:27:33.218Z,82.67
2023-05-12T08:28:34.877Z,82.40
2023-05-12T08:29:34.356Z,83.38
2023-05-12T08:30:35.254Z,84.30
2023-05-12T08:31:33.343Z,83.42
2023-05-12T08:32:33.203Z,82.51
2023-05-12T08:33:33.826Z,83.32
2023-05-12T08:34:33.155Z,84.30
2023-05-12T08:35:34.486Z,83.59
2023-05-12T08:36:34.168Z,84.30
2023-05-12T08:37:35.020Z,84.70
2023-05-12T08:38:34.005Z,83.18
2023-05-12T08:39:33.847Z,83.28
2023-05-12T08:40:33.098Z,83.04
2023-05-12T08:41:33.068Z,83.69
2023-05-12T08:42:33.115Z,82.78
2023-05-12T08:43:33.054Z,82.67
2023-05-12T08:44:34.656Z,82.12
2023-05-12T08:45:33.039Z,82.53
2023-05-12T08:46:34.872Z,82.12
2023-05-12T08:47:33.922Z,82.09
2023-05-12T08:48:33.004Z,80.43
2023-05-12T08:49:34.665Z,80.26
2023-05-12T08:50:34.554Z,79.31
2023-05-12T08:51:33.891Z,80.32
2023-05-12T08:52:32.970Z,79.45
2023-05-12T08:53:34.935Z,80.16
2023-05-12T08:54:39.954Z,79.14
2023-05-12T08:55:34.391Z,81.48
2023-05-12T08:57:32.904Z,82.29
2023-05-12T08:58:40.853Z,81.10
2023-05-12T08:59:34.679Z,80.96
2023-05-12T09:00:33.676Z,79.40
2023-05-12T09:01:34.219Z,78.53
2023-05-12T09:02:44.542Z,79.68
2023-05-12T09:03:33.923Z,78.87
2023-05-12T09:04:32.887Z,78.79
2023-05-12T09:05:34.616Z,79.13
2023-05-12T09:06:33.669Z,77.11
2023-05-12T09:07:33.543Z,75.22
2023-05-12T09:08:32.785Z,76.60
2023-05-12T09:09:34.863Z,75.79
2023-05-12T09:10:35.430Z,77.04
2023-05-12T09:11:32.763Z,77.21
2023-05-12T09:12:33.993Z,76.70
2023-05-12T09:13:33.566Z,76.40
2023-05-12T09:14:32.714Z,76.43
2023-05-12T09:15:34.336Z,77.04
2023-05-12T09:16:34.029Z,76.70
2023-05-12T09:17:33.762Z,77.21
2023-05-12T09:18:33.683Z,77.72
2023-05-12T09:19:32.682Z,76.43
2023-05-12T09:20:33.997Z,77.14
2023-05-12T09:21:33.786Z,77.72
2023-05-12T09:22:34.784Z,77.01
2023-05-12T09:23:34.307Z,75.99
2023-05-12T09:24:33.365Z,74.81
2023-05-12T09:25:32.623Z,76.94
2023-05-12T09:26:33.992Z,77.14
2023-05-12T09:27:33.146Z,77.75
2023-05-12T09:28:33.374Z,78.36
2023-05-12T09:29:39.512Z,77.55
2023-05-12T09:30:34.088Z,76.84
2023-05-12T09:31:34.219Z,76.94
2023-05-12T09:32:32.890Z,77.79
2023-05-12T09:33:32.537Z,78.16
2023-05-12T09:34:32.531Z,78.16
2023-05-12T09:35:34.611Z,77.75
2023-05-12T09:36:34.095Z,78.09
2023-05-12T09:37:34.380Z,79.17
2023-05-12T09:38:32.485Z,79.47
2023-05-12T09:39:32.513Z,80.08
2023-05-12T09:40:34.559Z,80.59
2023-05-12T09:41:33.927Z,79.17
2023-05-12T09:42:32.467Z,78.97
2023-05-12T09:43:34.288Z,78.46
2023-05-12T09:44:33.742Z,76.43
2023-05-12T09:45:33.177Z,76.74
2023-05-12T09:46:32.498Z,76.33
2023-05-12T09:47:34.004Z,75.66
2023-05-12T09:48:33.430Z,76.78
2023-05-12T09:49:32.421Z,77.79
2023-05-12T09:50:44.387Z,77.83
2023-05-12T09:51:33.826Z,80.06
2023-05-12T09:52:32.346Z,79.72
2023-05-12T09:53:33.158Z,78.94
2023-05-12T09:54:33.183Z,79.04
2023-05-12T09:55:33.218Z,80.50
2023-05-12T09:56:32.309Z,82.39
2023-05-12T09:57:33.130Z,81.07
2023-05-12T09:58:32.266Z,80.66
2023-05-12T09:59:33.519Z,79.96
2023-05-12T10:00:43.372Z,77.93
2023-05-12T10:01:32.957Z,77.59
2023-05-12T10:02:32.318Z,78.40
2023-05-12T10:03:33.506Z,78.77
2023-05-12T10:04:33.046Z,76.43
2023-05-12T10:05:32.825Z,77.79
2023-05-12T10:06:32.197Z,78.66
2023-05-12T10:07:34.154Z,77.89
2023-05-12T10:08:33.814Z,77.93
2023-05-12T10:09:32.263Z,77.56
2023-05-12T10:10:33.084Z,77.36
2023-05-12T10:11:32.161Z,77.90
2023-05-12T10:12:33.007Z,78.91
2023-05-12T10:13:32.876Z,79.77
2023-05-12T10:14:32.113Z,80.47
2023-05-12T10:15:33.513Z,79.77
2023-05-12T10:16:32.791Z,80.98
2023-05-12T10:17:33.125Z,81.49
2023-05-12T10:18:33.018Z,79.77
2023-05-12T10:19:33.584Z,78.61
2023-05-12T10:20:32.063Z,77.49
2023-05-12T10:21:32.852Z,78.71
2023-05-12T10:22:32.733Z,78.37
2023-05-12T10:23:32.808Z,78.47
2023-05-12T10:24:32.741Z,78.57
2023-05-12T10:25:32.906Z,78.23
2023-05-12T10:26:32.678Z,78.60
2023-05-12T10:27:31.993Z,77.99
2023-05-12T10:28:32.674Z,78.74
2023-05-12T10:29:32.724Z,78.94
2023-05-12T10:30:32.911Z,79.38
2023-05-12T10:31:31.967Z,81.38
2023-05-12T10:32:32.009Z,81.58
2023-05-12T10:33:32.535Z,80.87
2023-05-12T10:34:32.722Z,81.92
2023-05-12T10:35:31.885Z,82.23
2023-05-12T10:36:32.743Z,84.70
2023-05-12T10:37:31.957Z,85.05
2023-05-12T10:38:31.860Z,87.99
2023-05-12T10:39:32.707Z,88.76
2023-05-12T10:40:33.195Z,86.88
2023-05-12T10:41:33.740Z,90.64
2023-05-12T10:42:32.843Z,89.22
2023-05-12T10:43:31.971Z,89.52
2023-05-12T10:44:33.826Z,89.92
2023-05-12T10:45:33.450Z,89.05
2023-05-12T10:46:32.550Z,89.09
2023-05-12T10:47:31.835Z,92.45
2023-05-12T10:48:32.385Z,94.53
2023-05-12T10:49:31.843Z,96.26
2023-05-12T10:50:33.140Z,96.97
2023-05-12T10:51:32.847Z,95.54
2023-05-12T10:52:32.603Z,97.13
2023-05-12T10:53:47.624Z,95.61
2023-05-12T10:54:33.254Z,95.50
2023-05-12T10:55:32.736Z,95.09
2023-05-12T10:56:32.651Z,96.52
2023-05-12T10:57:32.251Z,95.97
2023-05-12T10:58:33.420Z,92.71
2023-05-12T10:59:32.189Z,93.06
2023-05-12T11:00:33.120Z,91.94
2023-05-12T11:01:32.519Z,91.94
2023-05-12T11:02:33.809Z,92.14
2023-05-12T11:03:33.191Z,91.94
2023-05-12T11:04:32.428Z,91.03
2023-05-12T11:05:33.495Z,93.47
2023-05-12T11:06:32.570Z,91.84
2023-05-12T11:07:33.066Z,92.04
2023-05-12T11:08:32.429Z,93.43
2023-05-12T11:09:31.638Z,93.02
2023-05-12T11:10:33.433Z,91.29
2023-05-12T11:11:32.473Z,90.07
2023-05-12T11:12:32.820Z,88.24
2023-05-12T11:13:32.806Z,88.54
2023-05-12T11:14:32.468Z,88.48
2023-05-12T11:15:33.036Z,90.22
2023-05-12T11:16:32.220Z,88.18
2023-05-12T11:17:31.556Z,90.01
2023-05-12T11:18:33.791Z,89.40
2023-05-12T11:19:32.403Z,89.20
2023-05-12T11:20:32.383Z,90.17
2023-05-12T11:21:33.363Z,90.88
2023-05-12T11:22:32.044Z,91.60
2023-05-12T11:23:32.399Z,91.49
2023-05-12T11:24:32.183Z,87.77
2023-05-12T11:25:32.284Z,89.40
2023-05-12T11:26:32.189Z,89.09
2023-05-12T11:27:32.764Z,88.69
2023-05-12T11:28:32.066Z,91.53
2023-05-12T11:29:32.341Z,91.94
2023-05-12T11:30:32.125Z,89.30
2023-05-12T11:31:32.823Z,89.50
2023-05-12T11:32:32.957Z,90.11
2023-05-12T11:33:32.917Z,89.44
2023-05-12T11:34:33.118Z,90.66
2023-05-12T11:35:35.623Z,92.65
2023-05-12T11:36:31.583Z,93.93
2023-05-12T11:37:32.978Z,91.80
2023-05-12T11:38:31.601Z,93.52
2023-05-12T11:39:33.024Z,92.10
2023-05-12T11:40:33.082Z,91.65
2023-05-12T11:41:32.337Z,91.19
2023-05-12T11:42:32.319Z,92.67
2023-05-12T11:43:33.647Z,90.53
2023-05-12T11:44:31.499Z,88.65
2023-05-12T11:45:32.508Z,88.28
2023-05-12T11:46:32.481Z,90.92
2023-05-12T11:47:32.946Z,89.81
2023-05-12T11:48:31.459Z,89.36
2023-05-12T11:49:33.478Z,86.65
2023-05-12T11:50:32.187Z,89.70
2023-05-12T11:51:32.310Z,88.75
2023-05-12T11:52:32.183Z,86.61
2023-05-12T11:53:32.338Z,88.39
2023-05-12T11:54:32.199Z,87.06
2023-05-12T11:55:33.660Z,85.47
2023-05-12T11:56:32.143Z,86.59
2023-05-12T11:57:32.296Z,88.59
2023-05-12T11:58:33.052Z,88.79
2023-05-12T11:59:33.564Z,86.55
2023-05-12T12:00:32.679Z,87.67
2023-05-12T12:01:32.320Z,86.15
2023-05-12T12:02:32.955Z,85.39
2023-05-12T12:03:32.749Z,86.71
2023-05-12T12:04:32.188Z,87.02
2023-05-12T12:05:32.221Z,85.60
2023-05-12T12:06:33.260Z,87.18
2023-05-12T12:07:32.166Z,85.35
2023-05-12T12:08:32.230Z,84.13
2023-05-12T12:09:31.219Z,82.61
2023-05-12T12:10:32.043Z,81.53
2023-05-12T12:11:32.121Z,83.15
2023-05-12T12:12:32.122Z,82.79
2023-05-12T12:13:32.033Z,85.80
2023-05-12T12:14:32.089Z,84.17
2023-05-12T12:15:31.953Z,82.54
2023-05-12T12:16:32.018Z,83.06
2023-05-12T12:17:32.188Z,82.34
2023-05-12T12:18:32.111Z,82.34
2023-05-12T12:19:31.988Z,82.24
2023-05-12T12:20:31.963Z,80.82
2023-05-12T12:21:32.985Z,79.53
2023-05-12T12:22:31.901Z,80.45
2023-05-12T12:23:43.794Z,81.26
2023-05-12T12:24:31.903Z,82.18
2023-05-12T12:25:32.030Z,81.67
2023-05-12T12:26:32.605Z,81.87
2023-05-12T12:27:31.967Z,80.65
2023-05-12T12:28:31.902Z,82.93
2023-05-12T12:29:32.061Z,84.62
2023-05-12T12:30:31.884Z,83.81
2023-05-12T12:31:31.864Z,82.38
2023-05-12T12:32:31.802Z,83.50
2023-05-12T12:33:31.601Z,84.21
2023-05-12T12:34:32.114Z,83.87
2023-05-12T12:35:31.560Z,83.06
2023-05-12T12:36:31.901Z,83.56
2023-05-12T12:37:31.721Z,83.06
2023-05-12T12:38:31.840Z,81.53
2023-05-12T12:39:31.540Z,81.43
2023-05-12T12:40:31.843Z,82.14
2023-05-12T12:41:31.961Z,81.33
2023-05-12T12:42:31.863Z,81.87
2023-05-12T12:43:32.223Z,82.34
2023-05-12T12:44:32.322Z,81.02
2023-05-12T12:45:31.724Z,81.09
2023-05-12T12:46:31.878Z,80.68
2023-05-12T12:47:32.275Z,81.19
2023-05-12T12:48:30.924Z,82.40
2023-05-12T12:49:31.872Z,81.29
2023-05-12T12:50:31.541Z,80.98
2023-05-12T12:51:44.588Z,81.02
2023-05-12T12:52:31.554Z,80.92
2023-05-12T12:53:31.920Z,82.54
2023-05-12T12:54:31.553Z,83.32